sensor_id;sensor_type;location;lat;lon;timestamp;temperature;humidity
76293;DHT22;67256;51.154;4.164;2023-05-10T00:01:38;17.10;73.90
76293;DHT22;67256;51.154;4.164;2023-05-10T00:04:03;17.10;73.90
76293;DHT22;67256;51.154;4.164;2023-05-10T00:06:29;17.10;74.00
76293;DHT22;67256;51.154;4.164;2023-05-10T00:08:55;17.10;74.00
76293;DHT22;67256;51.154;4.164;2023-05-10T00:11:21;17.10;74.20
76293;DHT22;67256;51.154;4.164;2023-05-10T00:13:47;17.10;74.00
76293;DHT22;67256;51.154;4.164;2023-05-10T00:16:13;17.10;74.00
76293;DHT22;67256;51.154;4.164;2023-05-10T00:18:39;17.10;74.00
76293;DHT22;67256;51.154;4.164;2023-05-10T00:21:05;17.00;74.00
76293;DHT22;67256;51.154;4.164;2023-05-10T00:23:31;17.00;74.10
76293;DHT22;67256;51.154;4.164;2023-05-10T00:25:57;17.00;74.00
76293;DHT22;67256;51.154;4.164;2023-05-10T00:28:23;17.00;74.10
76293;DHT22;67256;51.154;4.164;2023-05-10T00:30:49;16.90;74.10
76293;DHT22;67256;51.154;4.164;2023-05-10T00:33:14;17.00;74.20
76293;DHT22;67256;51.154;4.164;2023-05-10T00:35:40;16.90;74.10
76293;DHT22;67256;51.154;4.164;2023-05-10T00:38:06;16.90;74.10
76293;DHT22;67256;51.154;4.164;2023-05-10T00:40:31;16.90;74.20
76293;DHT22;67256;51.154;4.164;2023-05-10T00:42:57;16.90;74.30
76293;DHT22;67256;51.154;4.164;2023-05-10T00:45:24;16.90;74.40
76293;DHT22;67256;51.154;4.164;2023-05-10T00:47:51;16.90;74.50
76293;DHT22;67256;51.154;4.164;2023-05-10T00:50:21;16.90;74.40
76293;DHT22;67256;51.154;4.164;2023-05-10T00:52:47;16.90;74.30
76293;DHT22;67256;51.154;4.164;2023-05-10T00:55:13;16.90;74.40
76293;DHT22;67256;51.154;4.164;2023-05-10T00:57:39;16.90;74.40
76293;DHT22;67256;51.154;4.164;2023-05-10T01:00:06;16.90;74.50
76293;DHT22;67256;51.154;4.164;2023-05-10T01:02:33;16.90;74.30
76293;DHT22;67256;51.154;4.164;2023-05-10T01:05:00;16.90;74.30
76293;DHT22;67256;51.154;4.164;2023-05-10T01:07:27;16.90;74.30
76293;DHT22;67256;51.154;4.164;2023-05-10T01:09:52;16.90;74.20
76293;DHT22;67256;51.154;4.164;2023-05-10T01:12:18;16.90;74.20
76293;DHT22;67256;51.154;4.164;2023-05-10T01:14:44;16.90;74.10
76293;DHT22;67256;51.154;4.164;2023-05-10T01:17:10;16.70;75.50
76293;DHT22;67256;51.154;4.164;2023-05-10T01:19:37;16.70;75.10
76293;DHT22;67256;51.154;4.164;2023-05-10T01:25:41;16.80;74.70
76293;DHT22;67256;51.154;4.164;2023-05-10T01:34:16;16.80;74.70
76293;DHT22;67256;51.154;4.164;2023-05-10T01:36:59;16.80;74.50
76293;DHT22;67256;51.154;4.164;2023-05-10T01:39:32;16.80;74.60
76293;DHT22;67256;51.154;4.164;2023-05-10T01:42:11;16.80;74.60
76293;DHT22;67256;51.154;4.164;2023-05-10T01:44:46;16.80;74.60
76293;DHT22;67256;51.154;4.164;2023-05-10T01:49:54;16.80;74.70
76293;DHT22;67256;51.154;4.164;2023-05-10T01:52:25;16.70;74.50
76293;DHT22;67256;51.154;4.164;2023-05-10T01:54:55;16.70;74.90
76293;DHT22;67256;51.154;4.164;2023-05-10T01:57:27;16.60;74.70
76293;DHT22;67256;51.154;4.164;2023-05-10T01:59:57;16.60;75.10
76293;DHT22;67256;51.154;4.164;2023-05-10T02:02:25;16.50;74.60
76293;DHT22;67256;51.154;4.164;2023-05-10T02:04:53;16.40;75.40
76293;DHT22;67256;51.154;4.164;2023-05-10T02:07:22;16.40;75.70
76293;DHT22;67256;51.154;4.164;2023-05-10T02:09:48;16.50;75.70
76293;DHT22;67256;51.154;4.164;2023-05-10T02:12:16;16.40;75.60
76293;DHT22;67256;51.154;4.164;2023-05-10T02:14:42;16.30;75.70
76293;DHT22;67256;51.154;4.164;2023-05-10T02:17:09;16.30;76.40
76293;DHT22;67256;51.154;4.164;2023-05-10T02:19:39;16.30;76.00
76293;DHT22;67256;51.154;4.164;2023-05-10T02:22:06;16.40;76.10
76293;DHT22;67256;51.154;4.164;2023-05-10T02:24:35;16.40;75.60
76293;DHT22;67256;51.154;4.164;2023-05-10T02:27:02;16.50;75.30
76293;DHT22;67256;51.154;4.164;2023-05-10T02:29:29;16.60;75.20
76293;DHT22;67256;51.154;4.164;2023-05-10T02:31:57;16.50;75.30
76293;DHT22;67256;51.154;4.164;2023-05-10T02:34:26;16.50;75.30
76293;DHT22;67256;51.154;4.164;2023-05-10T02:36:53;16.40;75.40
76293;DHT22;67256;51.154;4.164;2023-05-10T02:39:21;16.40;75.70
76293;DHT22;67256;51.154;4.164;2023-05-10T02:41:48;16.30;75.60
76293;DHT22;67256;51.154;4.164;2023-05-10T02:44:18;16.20;75.00
76293;DHT22;67256;51.154;4.164;2023-05-10T02:46:44;15.90;76.40
76293;DHT22;67256;51.154;4.164;2023-05-10T02:49:10;15.90;76.60
76293;DHT22;67256;51.154;4.164;2023-05-10T02:51:42;15.50;77.20
76293;DHT22;67256;51.154;4.164;2023-05-10T02:54:18;15.40;78.90
76293;DHT22;67256;51.154;4.164;2023-05-10T02:56:52;15.60;78.00
76293;DHT22;67256;51.154;4.164;2023-05-10T02:59:19;15.70;76.80
76293;DHT22;67256;51.154;4.164;2023-05-10T03:01:45;15.70;77.00
76293;DHT22;67256;51.154;4.164;2023-05-10T03:04:11;15.80;76.40
76293;DHT22;67256;51.154;4.164;2023-05-10T03:06:37;15.60;77.30
76293;DHT22;67256;51.154;4.164;2023-05-10T03:09:03;15.80;76.80
76293;DHT22;67256;51.154;4.164;2023-05-10T03:11:43;15.90;75.90
76293;DHT22;67256;51.154;4.164;2023-05-10T03:14:49;15.90;76.20
76293;DHT22;67256;51.154;4.164;2023-05-10T03:17:33;15.70;76.60
76293;DHT22;67256;51.154;4.164;2023-05-10T03:20:08;15.40;77.50
76293;DHT22;67256;51.154;4.164;2023-05-10T03:22:42;15.20;79.10
76293;DHT22;67256;51.154;4.164;2023-05-10T03:25:10;15.10;79.50
76293;DHT22;67256;51.154;4.164;2023-05-10T03:27:40;15.00;80.10
76293;DHT22;67256;51.154;4.164;2023-05-10T03:30:08;15.00;79.70
76293;DHT22;67256;51.154;4.164;2023-05-10T03:32:35;14.70;81.00
76293;DHT22;67256;51.154;4.164;2023-05-10T03:35:07;14.70;81.10
76293;DHT22;67256;51.154;4.164;2023-05-10T03:37:33;14.90;80.00
76293;DHT22;67256;51.154;4.164;2023-05-10T03:40:00;15.00;80.00
76293;DHT22;67256;51.154;4.164;2023-05-10T03:42:26;15.20;79.20
76293;DHT22;67256;51.154;4.164;2023-05-10T03:44:51;15.50;77.90
76293;DHT22;67256;51.154;4.164;2023-05-10T03:47:17;15.70;76.70
76293;DHT22;67256;51.154;4.164;2023-05-10T03:49:43;15.80;76.50
76293;DHT22;67256;51.154;4.164;2023-05-10T03:52:08;15.90;76.10
76293;DHT22;67256;51.154;4.164;2023-05-10T03:54:34;16.00;75.70
76293;DHT22;67256;51.154;4.164;2023-05-10T03:57:00;16.00;75.10
76293;DHT22;67256;51.154;4.164;2023-05-10T03:59:26;16.10;75.70
76293;DHT22;67256;51.154;4.164;2023-05-10T04:01:52;16.10;74.90
76293;DHT22;67256;51.154;4.164;2023-05-10T04:04:17;16.10;74.80
76293;DHT22;67256;51.154;4.164;2023-05-10T04:06:46;16.20;74.70
76293;DHT22;67256;51.154;4.164;2023-05-10T04:09:11;16.20;74.20
76293;DHT22;67256;51.154;4.164;2023-05-10T04:11:37;16.30;74.30
76293;DHT22;67256;51.154;4.164;2023-05-10T04:14:03;16.30;74.30
76293;DHT22;67256;51.154;4.164;2023-05-10T04:16:28;16.30;74.10
76293;DHT22;67256;51.154;4.164;2023-05-10T04:18:54;16.30;74.00
76293;DHT22;67256;51.154;4.164;2023-05-10T04:21:20;16.30;74.10
76293;DHT22;67256;51.154;4.164;2023-05-10T04:23:46;16.40;74.20
76293;DHT22;67256;51.154;4.164;2023-05-10T04:26:12;16.40;74.00
76293;DHT22;67256;51.154;4.164;2023-05-10T04:28:38;16.40;73.70
76293;DHT22;67256;51.154;4.164;2023-05-10T04:31:05;16.40;73.60
76293;DHT22;67256;51.154;4.164;2023-05-10T04:33:32;16.50;73.80
76293;DHT22;67256;51.154;4.164;2023-05-10T04:35:57;16.50;73.80
76293;DHT22;67256;51.154;4.164;2023-05-10T04:38:23;16.50;73.70
76293;DHT22;67256;51.154;4.164;2023-05-10T04:40:49;16.50;73.80
76293;DHT22;67256;51.154;4.164;2023-05-10T04:43:15;16.40;74.00
76293;DHT22;67256;51.154;4.164;2023-05-10T04:45:40;16.40;73.90
76293;DHT22;67256;51.154;4.164;2023-05-10T04:48:06;16.40;73.80
76293;DHT22;67256;51.154;4.164;2023-05-10T04:50:32;16.50;73.70
76293;DHT22;67256;51.154;4.164;2023-05-10T04:52:58;16.40;73.80
76293;DHT22;67256;51.154;4.164;2023-05-10T04:55:24;16.50;74.00
76293;DHT22;67256;51.154;4.164;2023-05-10T04:57:50;16.50;73.90
76293;DHT22;67256;51.154;4.164;2023-05-10T05:00:17;16.50;73.60
76293;DHT22;67256;51.154;4.164;2023-05-10T05:02:43;16.50;73.60
76293;DHT22;67256;51.154;4.164;2023-05-10T05:05:11;16.50;73.50
76293;DHT22;67256;51.154;4.164;2023-05-10T05:07:37;16.50;73.40
76293;DHT22;67256;51.154;4.164;2023-05-10T05:10:05;16.50;73.50
76293;DHT22;67256;51.154;4.164;2023-05-10T05:12:31;16.50;73.30
76293;DHT22;67256;51.154;4.164;2023-05-10T05:14:57;16.60;73.30
76293;DHT22;67256;51.154;4.164;2023-05-10T05:17:22;16.50;73.40
76293;DHT22;67256;51.154;4.164;2023-05-10T05:19:48;16.40;73.50
76293;DHT22;67256;51.154;4.164;2023-05-10T05:22:14;16.50;73.60
76293;DHT22;67256;51.154;4.164;2023-05-10T05:24:39;16.50;73.70
76293;DHT22;67256;51.154;4.164;2023-05-10T05:27:05;16.40;73.70
76293;DHT22;67256;51.154;4.164;2023-05-10T05:29:31;16.50;73.50
76293;DHT22;67256;51.154;4.164;2023-05-10T05:31:57;16.60;73.40
76293;DHT22;67256;51.154;4.164;2023-05-10T05:34:23;16.50;73.30
76293;DHT22;67256;51.154;4.164;2023-05-10T05:36:49;16.50;73.70
76293;DHT22;67256;51.154;4.164;2023-05-10T05:39:16;16.50;73.50
76293;DHT22;67256;51.154;4.164;2023-05-10T05:41:41;16.60;73.40
76293;DHT22;67256;51.154;4.164;2023-05-10T05:44:07;16.70;73.30
76293;DHT22;67256;51.154;4.164;2023-05-10T05:46:33;16.70;73.10
76293;DHT22;67256;51.154;4.164;2023-05-10T05:49:01;16.70;73.00
76293;DHT22;67256;51.154;4.164;2023-05-10T05:51:26;16.70;73.20
76293;DHT22;67256;51.154;4.164;2023-05-10T05:53:52;16.70;73.10
76293;DHT22;67256;51.154;4.164;2023-05-10T05:56:18;16.50;73.00
76293;DHT22;67256;51.154;4.164;2023-05-10T05:58:50;16.50;73.20
76293;DHT22;67256;51.154;4.164;2023-05-10T06:01:15;16.60;73.40
76293;DHT22;67256;51.154;4.164;2023-05-10T06:03:41;16.70;73.30
76293;DHT22;67256;51.154;4.164;2023-05-10T06:06:07;16.70;73.30
76293;DHT22;67256;51.154;4.164;2023-05-10T06:08:33;16.70;73.10
76293;DHT22;67256;51.154;4.164;2023-05-10T06:11:00;16.70;73.00
76293;DHT22;67256;51.154;4.164;2023-05-10T06:13:25;16.60;73.50
76293;DHT22;67256;51.154;4.164;2023-05-10T06:16:00;16.60;73.20
76293;DHT22;67256;51.154;4.164;2023-05-10T06:18:26;16.60;73.70
76293;DHT22;67256;51.154;4.164;2023-05-10T06:20:52;16.60;73.00
76293;DHT22;67256;51.154;4.164;2023-05-10T06:23:17;16.50;73.80
76293;DHT22;67256;51.154;4.164;2023-05-10T06:25:43;16.70;73.50
76293;DHT22;67256;51.154;4.164;2023-05-10T06:28:09;16.60;72.90
76293;DHT22;67256;51.154;4.164;2023-05-10T06:30:36;16.60;73.30
76293;DHT22;67256;51.154;4.164;2023-05-10T06:33:02;16.60;73.20
76293;DHT22;67256;51.154;4.164;2023-05-10T06:35:28;16.60;73.30
76293;DHT22;67256;51.154;4.164;2023-05-10T06:37:54;16.70;73.30
76293;DHT22;67256;51.154;4.164;2023-05-10T06:40:20;16.70;72.90
76293;DHT22;67256;51.154;4.164;2023-05-10T06:42:46;16.70;72.70
76293;DHT22;67256;51.154;4.164;2023-05-10T06:45:13;16.70;72.20
76293;DHT22;67256;51.154;4.164;2023-05-10T06:47:40;16.70;72.60
76293;DHT22;67256;51.154;4.164;2023-05-10T06:50:09;16.70;72.10
76293;DHT22;67256;51.154;4.164;2023-05-10T06:52:35;16.70;71.90
76293;DHT22;67256;51.154;4.164;2023-05-10T06:55:01;16.70;72.80
76293;DHT22;67256;51.154;4.164;2023-05-10T06:57:27;16.70;72.20
76293;DHT22;67256;51.154;4.164;2023-05-10T06:59:53;16.60;72.50
76293;DHT22;67256;51.154;4.164;2023-05-10T07:02:18;16.50;72.90
76293;DHT22;67256;51.154;4.164;2023-05-10T07:04:44;16.50;72.80
76293;DHT22;67256;51.154;4.164;2023-05-10T07:07:12;16.60;72.90
76293;DHT22;67256;51.154;4.164;2023-05-10T07:09:38;16.70;72.50
76293;DHT22;67256;51.154;4.164;2023-05-10T07:12:04;16.70;72.40
76293;DHT22;67256;51.154;4.164;2023-05-10T07:14:30;16.60;72.30
76293;DHT22;67256;51.154;4.164;2023-05-10T07:16:56;16.80;72.20
76293;DHT22;67256;51.154;4.164;2023-05-10T07:19:21;17.10;72.20
76293;DHT22;67256;51.154;4.164;2023-05-10T07:21:47;17.30;71.60
76293;DHT22;67256;51.154;4.164;2023-05-10T07:24:13;17.40;70.40
76293;DHT22;67256;51.154;4.164;2023-05-10T07:26:39;17.40;70.00
76293;DHT22;67256;51.154;4.164;2023-05-10T07:29:05;17.30;69.10
76293;DHT22;67256;51.154;4.164;2023-05-10T07:31:31;17.00;70.40
76293;DHT22;67256;51.154;4.164;2023-05-10T07:33:56;17.20;70.80
76293;DHT22;67256;51.154;4.164;2023-05-10T07:36:22;17.10;70.30
76293;DHT22;67256;51.154;4.164;2023-05-10T07:38:48;17.00;69.80
76293;DHT22;67256;51.154;4.164;2023-05-10T07:41:15;17.20;70.10
76293;DHT22;67256;51.154;4.164;2023-05-10T07:43:40;17.40;69.70
76293;DHT22;67256;51.154;4.164;2023-05-10T07:46:06;17.60;69.20
76293;DHT22;67256;51.154;4.164;2023-05-10T07:48:32;17.80;68.60
76293;DHT22;67256;51.154;4.164;2023-05-10T07:50:58;17.80;68.50
76293;DHT22;67256;51.154;4.164;2023-05-10T07:53:26;17.90;67.50
76293;DHT22;67256;51.154;4.164;2023-05-10T07:55:54;17.90;67.50
76293;DHT22;67256;51.154;4.164;2023-05-10T07:58:23;18.00;67.60
76293;DHT22;67256;51.154;4.164;2023-05-10T08:00:49;18.00;67.00
76293;DHT22;67256;51.154;4.164;2023-05-10T08:03:15;17.60;67.40
76293;DHT22;67256;51.154;4.164;2023-05-10T08:05:41;17.80;67.70
76293;DHT22;67256;51.154;4.164;2023-05-10T08:08:07;17.90;67.50
76293;DHT22;67256;51.154;4.164;2023-05-10T08:10:32;18.10;66.80
76293;DHT22;67256;51.154;4.164;2023-05-10T08:12:58;18.20;66.80
76293;DHT22;67256;51.154;4.164;2023-05-10T08:15:24;18.40;66.50
76293;DHT22;67256;51.154;4.164;2023-05-10T08:17:51;18.60;65.90
76293;DHT22;67256;51.154;4.164;2023-05-10T08:20:18;18.50;64.40
76293;DHT22;67256;51.154;4.164;2023-05-10T08:22:45;18.10;63.70
76293;DHT22;67256;51.154;4.164;2023-05-10T08:25:11;17.60;65.10
76293;DHT22;67256;51.154;4.164;2023-05-10T08:27:36;17.50;68.00
76293;DHT22;67256;51.154;4.164;2023-05-10T08:30:02;17.70;67.90
76293;DHT22;67256;51.154;4.164;2023-05-10T08:32:28;18.00;65.70
76293;DHT22;67256;51.154;4.164;2023-05-10T08:34:54;18.30;65.20
76293;DHT22;67256;51.154;4.164;2023-05-10T08:37:20;18.40;62.70
76293;DHT22;67256;51.154;4.164;2023-05-10T08:39:46;17.90;63.80
76293;DHT22;67256;51.154;4.164;2023-05-10T08:42:16;18.10;64.80
76293;DHT22;67256;51.154;4.164;2023-05-10T08:44:45;18.00;61.90
76293;DHT22;67256;51.154;4.164;2023-05-10T08:47:15;17.60;62.90
76293;DHT22;67256;51.154;4.164;2023-05-10T08:49:42;17.80;62.40
76293;DHT22;67256;51.154;4.164;2023-05-10T08:52:11;18.10;62.90
76293;DHT22;67256;51.154;4.164;2023-05-10T08:54:38;18.10;62.60
76293;DHT22;67256;51.154;4.164;2023-05-10T08:57:04;18.20;63.10
76293;DHT22;67256;51.154;4.164;2023-05-10T08:59:30;18.40;62.30
76293;DHT22;67256;51.154;4.164;2023-05-10T09:01:57;18.30;62.50
76293;DHT22;67256;51.154;4.164;2023-05-10T09:04:24;18.20;64.40
76293;DHT22;67256;51.154;4.164;2023-05-10T09:06:50;18.20;66.50
76293;DHT22;67256;51.154;4.164;2023-05-10T09:09:17;18.30;67.00
76293;DHT22;67256;51.154;4.164;2023-05-10T09:11:43;18.30;67.00
76293;DHT22;67256;51.154;4.164;2023-05-10T09:14:10;18.30;67.40
76293;DHT22;67256;51.154;4.164;2023-05-10T09:16:37;18.30;67.60
76293;DHT22;67256;51.154;4.164;2023-05-10T09:19:03;18.10;67.90
76293;DHT22;67256;51.154;4.164;2023-05-10T09:21:30;18.00;68.40
76293;DHT22;67256;51.154;4.164;2023-05-10T09:23:56;18.00;68.50
76293;DHT22;67256;51.154;4.164;2023-05-10T09:26:23;18.00;68.60
76293;DHT22;67256;51.154;4.164;2023-05-10T09:28:54;18.00;68.50
76293;DHT22;67256;51.154;4.164;2023-05-10T09:31:20;18.00;68.40
76293;DHT22;67256;51.154;4.164;2023-05-10T09:33:47;17.90;68.70
76293;DHT22;67256;51.154;4.164;2023-05-10T09:36:13;18.00;68.40
76293;DHT22;67256;51.154;4.164;2023-05-10T09:38:50;18.10;68.70
76293;DHT22;67256;51.154;4.164;2023-05-10T09:41:22;18.10;68.10
76293;DHT22;67256;51.154;4.164;2023-05-10T09:43:48;18.20;68.60
76293;DHT22;67256;51.154;4.164;2023-05-10T09:46:15;18.20;68.30
76293;DHT22;67256;51.154;4.164;2023-05-10T09:48:45;18.40;67.60
76293;DHT22;67256;51.154;4.164;2023-05-10T09:51:24;18.60;67.40
76293;DHT22;67256;51.154;4.164;2023-05-10T09:54:15;18.70;66.50
76293;DHT22;67256;51.154;4.164;2023-05-10T09:56:42;18.80;66.40
76293;DHT22;67256;51.154;4.164;2023-05-10T09:59:11;18.60;66.40
76293;DHT22;67256;51.154;4.164;2023-05-10T10:01:38;18.60;66.70
76293;DHT22;67256;51.154;4.164;2023-05-10T10:04:05;18.80;66.30
76293;DHT22;67256;51.154;4.164;2023-05-10T10:06:39;18.90;65.50
76293;DHT22;67256;51.154;4.164;2023-05-10T10:09:06;19.00;65.60
76293;DHT22;67256;51.154;4.164;2023-05-10T10:11:35;19.10;65.40
76293;DHT22;67256;51.154;4.164;2023-05-10T10:14:01;19.20;64.60
76293;DHT22;67256;51.154;4.164;2023-05-10T10:16:31;19.10;64.60
76293;DHT22;67256;51.154;4.164;2023-05-10T10:18:57;19.10;64.70
76293;DHT22;67256;51.154;4.164;2023-05-10T10:21:23;19.00;65.10
76293;DHT22;67256;51.154;4.164;2023-05-10T10:23:49;18.90;65.00
76293;DHT22;67256;51.154;4.164;2023-05-10T10:26:17;18.90;64.60
76293;DHT22;67256;51.154;4.164;2023-05-10T10:34:29;19.30;64.50
76293;DHT22;67256;51.154;4.164;2023-05-10T10:36:56;19.30;64.20
76293;DHT22;67256;51.154;4.164;2023-05-10T10:39:23;19.10;64.80
76293;DHT22;67256;51.154;4.164;2023-05-10T10:41:57;19.20;65.50
76293;DHT22;67256;51.154;4.164;2023-05-10T10:44:23;19.10;64.80
76293;DHT22;67256;51.154;4.164;2023-05-10T10:52:25;19.20;64.70
76293;DHT22;67256;51.154;4.164;2023-05-10T10:57:54;19.20;64.70
76293;DHT22;67256;51.154;4.164;2023-05-10T11:00:34;19.20;64.60
76293;DHT22;67256;51.154;4.164;2023-05-10T11:03:05;19.10;64.60
76293;DHT22;67256;51.154;4.164;2023-05-10T11:05:36;18.90;65.00
76293;DHT22;67256;51.154;4.164;2023-05-10T11:08:29;19.00;64.80
76293;DHT22;67256;51.154;4.164;2023-05-10T11:13:42;19.10;64.50
76293;DHT22;67256;51.154;4.164;2023-05-10T11:16:21;19.20;65.10
76293;DHT22;67256;51.154;4.164;2023-05-10T11:21:31;19.30;63.80
76293;DHT22;67256;51.154;4.164;2023-05-10T11:23:59;19.30;63.70
76293;DHT22;67256;51.154;4.164;2023-05-10T11:26:30;19.20;64.40
76293;DHT22;67256;51.154;4.164;2023-05-10T11:28:56;19.40;63.70
76293;DHT22;67256;51.154;4.164;2023-05-10T11:31:23;19.50;63.80
76293;DHT22;67256;51.154;4.164;2023-05-10T11:33:55;19.60;63.30
76293;DHT22;67256;51.154;4.164;2023-05-10T11:36:26;19.60;63.50
76293;DHT22;67256;51.154;4.164;2023-05-10T11:38:53;19.70;63.50
76293;DHT22;67256;51.154;4.164;2023-05-10T11:41:20;19.80;63.20
76293;DHT22;67256;51.154;4.164;2023-05-10T11:43:49;19.80;62.30
76293;DHT22;67256;51.154;4.164;2023-05-10T11:46:15;19.80;62.30
76293;DHT22;67256;51.154;4.164;2023-05-10T11:48:42;19.70;62.00
76293;DHT22;67256;51.154;4.164;2023-05-10T11:51:09;19.60;62.50
76293;DHT22;67256;51.154;4.164;2023-05-10T11:53:35;19.60;62.70
76293;DHT22;67256;51.154;4.164;2023-05-10T11:56:10;19.50;63.60
76293;DHT22;67256;51.154;4.164;2023-05-10T11:58:39;19.40;63.60
76293;DHT22;67256;51.154;4.164;2023-05-10T12:01:07;19.40;63.10
76293;DHT22;67256;51.154;4.164;2023-05-10T12:03:34;19.40;63.60
76293;DHT22;67256;51.154;4.164;2023-05-10T12:06:01;19.40;63.90
76293;DHT22;67256;51.154;4.164;2023-05-10T12:08:28;19.30;63.70
76293;DHT22;67256;51.154;4.164;2023-05-10T12:11:08;19.30;63.90
76293;DHT22;67256;51.154;4.164;2023-05-10T12:13:37;19.40;63.80
76293;DHT22;67256;51.154;4.164;2023-05-10T12:16:19;19.30;63.80
76293;DHT22;67256;51.154;4.164;2023-05-10T12:18:55;19.20;63.50
76293;DHT22;67256;51.154;4.164;2023-05-10T12:21:21;19.20;63.50
76293;DHT22;67256;51.154;4.164;2023-05-10T12:23:52;19.20;63.30
76293;DHT22;67256;51.154;4.164;2023-05-10T12:26:21;19.20;63.90
76293;DHT22;67256;51.154;4.164;2023-05-10T12:28:47;19.10;64.10
76293;DHT22;67256;51.154;4.164;2023-05-10T12:31:12;19.00;63.00
76293;DHT22;67256;51.154;4.164;2023-05-10T12:33:43;19.00;63.00
76293;DHT22;67256;51.154;4.164;2023-05-10T12:36:13;19.10;63.60
76293;DHT22;67256;51.154;4.164;2023-05-10T12:38:44;19.00;63.30
76293;DHT22;67256;51.154;4.164;2023-05-10T12:41:14;18.90;63.40
76293;DHT22;67256;51.154;4.164;2023-05-10T12:43:41;19.00;63.50
76293;DHT22;67256;51.154;4.164;2023-05-10T12:46:09;19.00;63.30
76293;DHT22;67256;51.154;4.164;2023-05-10T12:48:35;19.00;63.40
76293;DHT22;67256;51.154;4.164;2023-05-10T12:51:02;18.80;64.30
76293;DHT22;67256;51.154;4.164;2023-05-10T12:53:28;18.50;66.80
76293;DHT22;67256;51.154;4.164;2023-05-10T12:55:54;18.60;67.20
76293;DHT22;67256;51.154;4.164;2023-05-10T12:58:19;18.40;68.20
76293;DHT22;67256;51.154;4.164;2023-05-10T13:00:45;18.50;68.20
76293;DHT22;67256;51.154;4.164;2023-05-10T13:03:11;18.40;68.00
76293;DHT22;67256;51.154;4.164;2023-05-10T13:05:37;18.40;67.00
76293;DHT22;67256;51.154;4.164;2023-05-10T13:08:03;18.30;67.20
76293;DHT22;67256;51.154;4.164;2023-05-10T13:10:30;18.30;67.40
76293;DHT22;67256;51.154;4.164;2023-05-10T13:12:57;18.30;67.70
76293;DHT22;67256;51.154;4.164;2023-05-10T13:15:23;18.30;68.00
76293;DHT22;67256;51.154;4.164;2023-05-10T13:17:49;18.30;68.10
76293;DHT22;67256;51.154;4.164;2023-05-10T13:20:14;18.30;67.90
76293;DHT22;67256;51.154;4.164;2023-05-10T13:22:42;18.50;68.30
76293;DHT22;67256;51.154;4.164;2023-05-10T13:25:09;18.50;68.10
76293;DHT22;67256;51.154;4.164;2023-05-10T13:27:36;18.60;68.10
76293;DHT22;67256;51.154;4.164;2023-05-10T13:30:02;18.80;68.10
76293;DHT22;67256;51.154;4.164;2023-05-10T13:32:29;18.90;67.80
76293;DHT22;67256;51.154;4.164;2023-05-10T13:34:55;19.00;66.90
76293;DHT22;67256;51.154;4.164;2023-05-10T13:37:21;18.90;67.80
76293;DHT22;67256;51.154;4.164;2023-05-10T13:39:47;19.00;67.30
76293;DHT22;67256;51.154;4.164;2023-05-10T13:42:13;19.10;67.50
76293;DHT22;67256;51.154;4.164;2023-05-10T13:44:39;19.20;67.20
76293;DHT22;67256;51.154;4.164;2023-05-10T13:47:05;19.20;66.60
76293;DHT22;67256;51.154;4.164;2023-05-10T13:49:31;19.30;66.30
76293;DHT22;67256;51.154;4.164;2023-05-10T13:51:57;19.30;66.50
76293;DHT22;67256;51.154;4.164;2023-05-10T13:54:23;19.40;66.30
76293;DHT22;67256;51.154;4.164;2023-05-10T13:56:49;19.50;66.50
76293;DHT22;67256;51.154;4.164;2023-05-10T13:59:15;19.50;64.50
76293;DHT22;67256;51.154;4.164;2023-05-10T14:01:41;19.50;65.70
76293;DHT22;67256;51.154;4.164;2023-05-10T14:04:08;19.50;65.70
76293;DHT22;67256;51.154;4.164;2023-05-10T14:06:37;19.40;64.00
76293;DHT22;67256;51.154;4.164;2023-05-10T14:09:03;19.20;64.40
76293;DHT22;67256;51.154;4.164;2023-05-10T14:11:29;19.00;65.70
76293;DHT22;67256;51.154;4.164;2023-05-10T14:13:55;18.90;66.50
76293;DHT22;67256;51.154;4.164;2023-05-10T14:16:21;18.70;66.30
76293;DHT22;67256;51.154;4.164;2023-05-10T14:18:47;18.20;68.90
76293;DHT22;67256;51.154;4.164;2023-05-10T14:21:12;18.00;70.60
76293;DHT22;67256;51.154;4.164;2023-05-10T14:23:38;17.50;72.30
76293;DHT22;67256;51.154;4.164;2023-05-10T14:26:04;17.40;71.80
76293;DHT22;67256;51.154;4.164;2023-05-10T14:28:30;17.20;69.60
76293;DHT22;67256;51.154;4.164;2023-05-10T14:30:56;17.00;70.00
76293;DHT22;67256;51.154;4.164;2023-05-10T14:33:21;16.90;72.60
76293;DHT22;67256;51.154;4.164;2023-05-10T14:35:47;17.00;70.80
76293;DHT22;67256;51.154;4.164;2023-05-10T14:38:14;17.00;72.00
76293;DHT22;67256;51.154;4.164;2023-05-10T14:40:39;17.20;71.80
76293;DHT22;67256;51.154;4.164;2023-05-10T14:43:05;17.40;71.40
76293;DHT22;67256;51.154;4.164;2023-05-10T14:45:32;17.40;70.80
76293;DHT22;67256;51.154;4.164;2023-05-10T14:47:58;17.60;70.70
76293;DHT22;67256;51.154;4.164;2023-05-10T14:50:24;17.60;70.00
76293;DHT22;67256;51.154;4.164;2023-05-10T14:52:50;17.60;70.40
76293;DHT22;67256;51.154;4.164;2023-05-10T14:55:16;17.70;69.50
76293;DHT22;67256;51.154;4.164;2023-05-10T14:57:42;17.70;69.70
76293;DHT22;67256;51.154;4.164;2023-05-10T15:00:10;17.80;69.60
76293;DHT22;67256;51.154;4.164;2023-05-10T15:02:35;17.70;70.10
76293;DHT22;67256;51.154;4.164;2023-05-10T15:05:02;17.70;70.40
76293;DHT22;67256;51.154;4.164;2023-05-10T15:07:27;17.70;70.50
76293;DHT22;67256;51.154;4.164;2023-05-10T15:09:53;17.60;69.60
76293;DHT22;67256;51.154;4.164;2023-05-10T15:12:20;17.50;70.60
76293;DHT22;67256;51.154;4.164;2023-05-10T15:14:46;17.50;71.50
76293;DHT22;67256;51.154;4.164;2023-05-10T15:17:11;17.60;71.20
76293;DHT22;67256;51.154;4.164;2023-05-10T15:19:37;17.70;70.60
76293;DHT22;67256;51.154;4.164;2023-05-10T15:22:04;17.80;70.30
76293;DHT22;67256;51.154;4.164;2023-05-10T15:24:31;17.90;69.80
76293;DHT22;67256;51.154;4.164;2023-05-10T15:26:57;17.90;70.10
76293;DHT22;67256;51.154;4.164;2023-05-10T15:29:22;18.00;70.60
76293;DHT22;67256;51.154;4.164;2023-05-10T15:31:51;18.00;70.40
76293;DHT22;67256;51.154;4.164;2023-05-10T15:34:17;18.00;69.70
76293;DHT22;67256;51.154;4.164;2023-05-10T15:36:44;18.00;69.70
76293;DHT22;67256;51.154;4.164;2023-05-10T15:39:10;18.00;69.90
76293;DHT22;67256;51.154;4.164;2023-05-10T15:41:36;18.00;69.40
76293;DHT22;67256;51.154;4.164;2023-05-10T15:44:02;18.00;69.40
76293;DHT22;67256;51.154;4.164;2023-05-10T15:46:28;18.10;70.10
76293;DHT22;67256;51.154;4.164;2023-05-10T15:48:54;18.10;69.90
76293;DHT22;67256;51.154;4.164;2023-05-10T15:51:20;18.10;70.20
76293;DHT22;67256;51.154;4.164;2023-05-10T15:53:46;18.10;70.50
76293;DHT22;67256;51.154;4.164;2023-05-10T15:56:12;18.10;70.80
76293;DHT22;67256;51.154;4.164;2023-05-10T15:58:39;18.00;70.70
76293;DHT22;67256;51.154;4.164;2023-05-10T16:01:04;18.00;71.10
76293;DHT22;67256;51.154;4.164;2023-05-10T16:03:32;18.00;70.90